sensor_id;sensor_type;location;lat;lon;timestamp;P1;durP1;ratioP1;P2;durP2;ratioP2
75427;SDS011;64008;55.612;37.698;2022-12-10T00:00:35;29.90;;;8.70;;
75427;SDS011;64008;55.612;37.698;2022-12-10T00:03:01;36.42;;;9.57;;
75427;SDS011;64008;55.612;37.698;2022-12-10T00:05:27;31.50;;;8.73;;
75427;SDS011;64008;55.612;37.698;2022-12-10T00:07:52;31.10;;;8.18;;
75427;SDS011;64008;55.612;37.698;2022-12-10T00:10:18;32.45;;;8.55;;
75427;SDS011;64008;55.612;37.698;2022-12-10T00:12:44;34.40;;;10.98;;
75427;SDS011;64008;55.612;37.698;2022-12-10T00:15:09;30.58;;;8.25;;
75427;SDS011;64008;55.612;37.698;2022-12-10T00:17:35;33.70;;;9.32;;
75427;SDS011;64008;55.612;37.698;2022-12-10T00:20:00;44.78;;;11.40;;
75427;SDS011;64008;55.612;37.698;2022-12-10T00:22:26;32.00;;;8.68;;
75427;SDS011;64008;55.612;37.698;2022-12-10T00:24:52;32.80;;;9.63;;
75427;SDS011;64008;55.612;37.698;2022-12-10T00:27:17;35.30;;;9.32;;
75427;SDS011;64008;55.612;37.698;2022-12-10T00:29:43;35.33;;;9.70;;
75427;SDS011;64008;55.612;37.698;2022-12-10T00:32:08;38.83;;;11.13;;
75427;SDS011;64008;55.612;37.698;2022-12-10T00:34:34;32.33;;;8.80;;
75427;SDS011;64008;55.612;37.698;2022-12-10T00:37:00;24.23;;;8.70;;
75427;SDS011;64008;55.612;37.698;2022-12-10T00:39:25;27.65;;;9.20;;
75427;SDS011;64008;55.612;37.698;2022-12-10T00:41:51;28.05;;;9.05;;
75427;SDS011;64008;55.612;37.698;2022-12-10T00:44:17;37.90;;;11.00;;
75427;SDS011;64008;55.612;37.698;2022-12-10T00:46:43;33.30;;;9.80;;
75427;SDS011;64008;55.612;37.698;2022-12-10T00:49:09;30.13;;;9.18;;
75427;SDS011;64008;55.612;37.698;2022-12-10T00:51:35;29.70;;;9.30;;
75427;SDS011;64008;55.612;37.698;2022-12-10T00:54:00;40.45;;;12.30;;
75427;SDS011;64008;55.612;37.698;2022-12-10T00:56:30;29.38;;;9.25;;
75427;SDS011;64008;55.612;37.698;2022-12-10T00:58:58;36.25;;;9.85;;
75427;SDS011;64008;55.612;37.698;2022-12-10T01:01:28;29.55;;;9.63;;
75427;SDS011;64008;55.612;37.698;2022-12-10T01:04:04;29.92;;;9.05;;
75427;SDS011;64008;55.612;37.698;2022-12-10T01:06:33;36.35;;;11.68;;
75427;SDS011;64008;55.612;37.698;2022-12-10T01:09:02;32.95;;;10.43;;
75427;SDS011;64008;55.612;37.698;2022-12-10T01:11:30;29.95;;;8.95;;
75427;SDS011;64008;55.612;37.698;2022-12-10T01:13:57;38.17;;;10.95;;
75427;SDS011;64008;55.612;37.698;2022-12-10T01:16:23;39.13;;;12.90;;
75427;SDS011;64008;55.612;37.698;2022-12-10T01:18:52;39.15;;;12.63;;
75427;SDS011;64008;55.612;37.698;2022-12-10T01:21:19;33.95;;;10.40;;
75427;SDS011;64008;55.612;37.698;2022-12-10T01:23:47;38.63;;;13.20;;
75427;SDS011;64008;55.612;37.698;2022-12-10T01:26:18;41.15;;;13.68;;
75427;SDS011;64008;55.612;37.698;2022-12-10T01:28:46;36.83;;;11.60;;
75427;SDS011;64008;55.612;37.698;2022-12-10T01:33:44;37.92;;;12.30;;
75427;SDS011;64008;55.612;37.698;2022-12-10T01:36:19;39.72;;;10.43;;
75427;SDS011;64008;55.612;37.698;2022-12-10T01:38:46;35.55;;;11.57;;
75427;SDS011;64008;55.612;37.698;2022-12-10T01:41:13;47.08;;;14.35;;
75427;SDS011;64008;55.612;37.698;2022-12-10T01:43:57;30.73;;;10.52;;
75427;SDS011;64008;55.612;37.698;2022-12-10T01:46:29;34.25;;;10.60;;
75427;SDS011;64008;55.612;37.698;2022-12-10T01:48:56;40.72;;;11.60;;
75427;SDS011;64008;55.612;37.698;2022-12-10T01:51:24;39.78;;;12.13;;
75427;SDS011;64008;55.612;37.698;2022-12-10T01:53:53;37.85;;;11.98;;
75427;SDS011;64008;55.612;37.698;2022-12-10T01:56:19;35.58;;;11.05;;
75427;SDS011;64008;55.612;37.698;2022-12-10T01:58:45;41.97;;;12.32;;
75427;SDS011;64008;55.612;37.698;2022-12-10T02:07:24;43.78;;;12.77;;
75427;SDS011;64008;55.612;37.698;2022-12-10T02:13:00;39.10;;;11.40;;
75427;SDS011;64008;55.612;37.698;2022-12-10T02:15:32;42.67;;;12.10;;
75427;SDS011;64008;55.612;37.698;2022-12-10T02:18:09;37.75;;;12.20;;
75427;SDS011;64008;55.612;37.698;2022-12-10T02:20:44;38.35;;;11.63;;
75427;SDS011;64008;55.612;37.698;2022-12-10T02:31:13;36.85;;;11.02;;
75427;SDS011;64008;55.612;37.698;2022-12-10T02:33:43;36.60;;;12.30;;
75427;SDS011;64008;55.612;37.698;2022-12-10T02:36:14;34.55;;;12.15;;
75427;SDS011;64008;55.612;37.698;2022-12-10T02:41:11;38.75;;;11.52;;
75427;SDS011;64008;55.612;37.698;2022-12-10T02:43:43;28.63;;;8.43;;
75427;SDS011;64008;55.612;37.698;2022-12-10T02:46:13;31.48;;;10.70;;
75427;SDS011;64008;55.612;37.698;2022-12-10T02:48:38;33.75;;;9.98;;
75427;SDS011;64008;55.612;37.698;2022-12-10T02:51:06;32.95;;;10.45;;
75427;SDS011;64008;55.612;37.698;2022-12-10T02:53:31;22.92;;;8.65;;
75427;SDS011;64008;55.612;37.698;2022-12-10T03:04:14;42.25;;;11.70;;
75427;SDS011;64008;55.612;37.698;2022-12-10T03:06:50;29.92;;;9.77;;
75427;SDS011;64008;55.612;37.698;2022-12-10T03:09:22;33.95;;;11.07;;
75427;SDS011;64008;55.612;37.698;2022-12-10T03:11:59;31.02;;;10.50;;
75427;SDS011;64008;55.612;37.698;2022-12-10T03:14:31;28.20;;;10.38;;
75427;SDS011;64008;55.612;37.698;2022-12-10T03:16:59;31.25;;;10.82;;
75427;SDS011;64008;55.612;37.698;2022-12-10T03:19:47;22.23;;;8.73;;
75427;SDS011;64008;55.612;37.698;2022-12-10T03:22:14;29.50;;;10.27;;
75427;SDS011;64008;55.612;37.698;2022-12-10T03:24:42;23.67;;;8.98;;
75427;SDS011;64008;55.612;37.698;2022-12-10T03:27:09;30.42;;;10.95;;
75427;SDS011;64008;55.612;37.698;2022-12-10T03:29:39;25.38;;;9.23;;
75427;SDS011;64008;55.612;37.698;2022-12-10T03:32:10;17.38;;;5.70;;
75427;SDS011;64008;55.612;37.698;2022-12-10T03:34:36;25.40;;;9.38;;
75427;SDS011;64008;55.612;37.698;2022-12-10T03:37:03;21.40;;;8.50;;
75427;SDS011;64008;55.612;37.698;2022-12-10T03:39:30;24.40;;;9.00;;
75427;SDS011;64008;55.612;37.698;2022-12-10T03:41:56;28.73;;;10.10;;
75427;SDS011;64008;55.612;37.698;2022-12-10T03:44:32;33.22;;;12.02;;
75427;SDS011;64008;55.612;37.698;2022-12-10T03:47:00;29.45;;;9.73;;
75427;SDS011;64008;55.612;37.698;2022-12-10T03:49:26;26.23;;;10.55;;
75427;SDS011;64008;55.612;37.698;2022-12-10T03:51:52;31.13;;;10.85;;
75427;SDS011;64008;55.612;37.698;2022-12-10T03:54:18;29.60;;;9.73;;
75427;SDS011;64008;55.612;37.698;2022-12-10T03:56:44;30.83;;;11.55;;
75427;SDS011;64008;55.612;37.698;2022-12-10T03:59:09;38.90;;;11.98;;
75427;SDS011;64008;55.612;37.698;2022-12-10T04:01:35;30.23;;;11.20;;
75427;SDS011;64008;55.612;37.698;2022-12-10T04:04:00;33.05;;;12.60;;
75427;SDS011;64008;55.612;37.698;2022-12-10T04:06:27;42.90;;;14.65;;
75427;SDS011;64008;55.612;37.698;2022-12-10T04:08:53;33.47;;;11.18;;
75427;SDS011;64008;55.612;37.698;2022-12-10T04:11:18;32.17;;;10.07;;
75427;SDS011;64008;55.612;37.698;2022-12-10T04:13:44;38.03;;;12.55;;
75427;SDS011;64008;55.612;37.698;2022-12-10T04:16:29;29.30;;;10.23;;
75427;SDS011;64008;55.612;37.698;2022-12-10T04:18:58;30.80;;;11.48;;
75427;SDS011;64008;55.612;37.698;2022-12-10T04:21:25;28.55;;;10.07;;
75427;SDS011;64008;55.612;37.698;2022-12-10T04:24:10;34.03;;;12.07;;
75427;SDS011;64008;55.612;37.698;2022-12-10T04:26:56;34.67;;;10.95;;
75427;SDS011;64008;55.612;37.698;2022-12-10T04:29:25;31.75;;;10.48;;
75427;SDS011;64008;55.612;37.698;2022-12-10T04:31:52;31.55;;;11.23;;
75427;SDS011;64008;55.612;37.698;2022-12-10T04:34:18;29.70;;;10.30;;
75427;SDS011;64008;55.612;37.698;2022-12-10T04:36:44;32.28;;;10.90;;
75427;SDS011;64008;55.612;37.698;2022-12-10T04:39:10;29.48;;;9.50;;
75427;SDS011;64008;55.612;37.698;2022-12-10T04:41:43;31.95;;;11.80;;
75427;SDS011;64008;55.612;37.698;2022-12-10T04:44:10;31.50;;;10.82;;
75427;SDS011;64008;55.612;37.698;2022-12-10T04:46:36;27.90;;;10.75;;
75427;SDS011;64008;55.612;37.698;2022-12-10T04:49:02;32.72;;;11.23;;
75427;SDS011;64008;55.612;37.698;2022-12-10T04:51:29;27.75;;;10.38;;
75427;SDS011;64008;55.612;37.698;2022-12-10T04:53:56;34.38;;;10.73;;
75427;SDS011;64008;55.612;37.698;2022-12-10T04:56:21;39.33;;;11.32;;
75427;SDS011;64008;55.612;37.698;2022-12-10T04:58:47;34.13;;;11.40;;
75427;SDS011;64008;55.612;37.698;2022-12-10T05:01:13;35.17;;;11.38;;
75427;SDS011;64008;55.612;37.698;2022-12-10T05:03:39;36.25;;;10.70;;
75427;SDS011;64008;55.612;37.698;2022-12-10T05:06:06;34.15;;;11.15;;
75427;SDS011;64008;55.612;37.698;2022-12-10T05:08:34;36.40;;;12.00;;
75427;SDS011;64008;55.612;37.698;2022-12-10T05:11:01;39.20;;;12.82;;
75427;SDS011;64008;55.612;37.698;2022-12-10T05:13:31;25.90;;;9.68;;
75427;SDS011;64008;55.612;37.698;2022-12-10T05:15:57;35.10;;;12.63;;
75427;SDS011;64008;55.612;37.698;2022-12-10T05:18:22;35.10;;;12.93;;
75427;SDS011;64008;55.612;37.698;2022-12-10T05:20:48;38.65;;;11.32;;
75427;SDS011;64008;55.612;37.698;2022-12-10T05:23:14;34.25;;;11.38;;
75427;SDS011;64008;55.612;37.698;2022-12-10T05:26:01;34.25;;;11.50;;
75427;SDS011;64008;55.612;37.698;2022-12-10T05:28:36;33.35;;;11.52;;
75427;SDS011;64008;55.612;37.698;2022-12-10T05:31:03;34.42;;;11.13;;
75427;SDS011;64008;55.612;37.698;2022-12-10T05:33:30;32.42;;;11.07;;
75427;SDS011;64008;55.612;37.698;2022-12-10T05:36:00;36.08;;;10.68;;
75427;SDS011;64008;55.612;37.698;2022-12-10T05:38:28;35.70;;;11.38;;
75427;SDS011;64008;55.612;37.698;2022-12-10T05:41:00;37.70;;;12.43;;
75427;SDS011;64008;55.612;37.698;2022-12-10T05:43:26;38.92;;;13.13;;
75427;SDS011;64008;55.612;37.698;2022-12-10T05:45:52;38.25;;;11.85;;
75427;SDS011;64008;55.612;37.698;2022-12-10T05:48:17;28.73;;;11.35;;
75427;SDS011;64008;55.612;37.698;2022-12-10T05:50:43;37.03;;;11.98;;
75427;SDS011;64008;55.612;37.698;2022-12-10T05:53:09;40.92;;;13.43;;
75427;SDS011;64008;55.612;37.698;2022-12-10T05:55:34;46.63;;;13.25;;
75427;SDS011;64008;55.612;37.698;2022-12-10T05:58:00;33.22;;;11.25;;
75427;SDS011;64008;55.612;37.698;2022-12-10T06:00:26;44.75;;;14.10;;
75427;SDS011;64008;55.612;37.698;2022-12-10T06:02:53;30.35;;;11.95;;
75427;SDS011;64008;55.612;37.698;2022-12-10T06:05:19;43.10;;;12.80;;
75427;SDS011;64008;55.612;37.698;2022-12-10T06:07:45;37.55;;;11.93;;
75427;SDS011;64008;55.612;37.698;2022-12-10T06:10:11;40.47;;;13.90;;
75427;SDS011;64008;55.612;37.698;2022-12-10T06:12:37;41.92;;;13.57;;
75427;SDS011;64008;55.612;37.698;2022-12-10T06:15:03;40.22;;;12.80;;
75427;SDS011;64008;55.612;37.698;2022-12-10T06:17:29;48.75;;;14.20;;
75427;SDS011;64008;55.612;37.698;2022-12-10T06:19:55;39.20;;;13.48;;
75427;SDS011;64008;55.612;37.698;2022-12-10T06:22:20;39.08;;;12.57;;
75427;SDS011;64008;55.612;37.698;2022-12-10T06:24:46;48.95;;;14.48;;
75427;SDS011;64008;55.612;37.698;2022-12-10T06:27:11;46.95;;;14.00;;
75427;SDS011;64008;55.612;37.698;2022-12-10T06:29:37;42.30;;;14.52;;
75427;SDS011;64008;55.612;37.698;2022-12-10T06:32:02;41.72;;;13.35;;
75427;SDS011;64008;55.612;37.698;2022-12-10T06:34:28;36.05;;;12.90;;
75427;SDS011;64008;55.612;37.698;2022-12-10T06:36:54;35.92;;;12.98;;
75427;SDS011;64008;55.612;37.698;2022-12-10T06:39:19;42.17;;;12.77;;
75427;SDS011;64008;55.612;37.698;2022-12-10T06:41:45;39.75;;;12.95;;
75427;SDS011;64008;55.612;37.698;2022-12-10T06:44:11;37.83;;;12.85;;
75427;SDS011;64008;55.612;37.698;2022-12-10T06:46:37;44.42;;;12.43;;
75427;SDS011;64008;55.612;37.698;2022-12-10T06:49:04;31.95;;;11.07;;
75427;SDS011;64008;55.612;37.698;2022-12-10T06:51:30;40.40;;;12.38;;
75427;SDS011;64008;55.612;37.698;2022-12-10T06:53:56;41.40;;;11.77;;
75427;SDS011;64008;55.612;37.698;2022-12-10T06:56:21;31.67;;;11.30;;
75427;SDS011;64008;55.612;37.698;2022-12-10T06:58:47;36.50;;;12.05;;
75427;SDS011;64008;55.612;37.698;2022-12-10T07:01:17;41.38;;;12.48;;
75427;SDS011;64008;55.612;37.698;2022-12-10T07:03:47;41.33;;;12.60;;
75427;SDS011;64008;55.612;37.698;2022-12-10T07:06:20;37.60;;;12.00;;
75427;SDS011;64008;55.612;37.698;2022-12-10T07:08:48;40.03;;;12.15;;
75427;SDS011;64008;55.612;37.698;2022-12-10T07:11:15;37.97;;;11.65;;
75427;SDS011;64008;55.612;37.698;2022-12-10T07:13:42;39.65;;;11.23;;
75427;SDS011;64008;55.612;37.698;2022-12-10T07:16:26;48.72;;;15.27;;
75427;SDS011;64008;55.612;37.698;2022-12-10T07:18:54;40.25;;;14.48;;
75427;SDS011;64008;55.612;37.698;2022-12-10T07:23:51;44.65;;;13.60;;
75427;SDS011;64008;55.612;37.698;2022-12-10T07:26:23;44.53;;;12.57;;
75427;SDS011;64008;55.612;37.698;2022-12-10T07:28:49;44.55;;;13.75;;
75427;SDS011;64008;55.612;37.698;2022-12-10T07:31:15;43.83;;;13.13;;
75427;SDS011;64008;55.612;37.698;2022-12-10T07:33:41;37.60;;;13.63;;
75427;SDS011;64008;55.612;37.698;2022-12-10T07:36:07;54.42;;;16.40;;
75427;SDS011;64008;55.612;37.698;2022-12-10T07:38:35;39.28;;;12.38;;
75427;SDS011;64008;55.612;37.698;2022-12-10T07:41:08;37.10;;;11.23;;
75427;SDS011;64008;55.612;37.698;2022-12-10T07:43:36;42.53;;;13.05;;
75427;SDS011;64008;55.612;37.698;2022-12-10T07:46:16;50.40;;;12.73;;
75427;SDS011;64008;55.612;37.698;2022-12-10T07:48:44;39.05;;;13.30;;
75427;SDS011;64008;55.612;37.698;2022-12-10T07:51:11;43.95;;;13.10;;
75427;SDS011;64008;55.612;37.698;2022-12-10T07:53:38;35.05;;;10.52;;
75427;SDS011;64008;55.612;37.698;2022-12-10T07:56:04;45.03;;;10.45;;
75427;SDS011;64008;55.612;37.698;2022-12-10T07:58:30;40.10;;;12.40;;
75427;SDS011;64008;55.612;37.698;2022-12-10T08:00:56;45.58;;;13.48;;
75427;SDS011;64008;55.612;37.698;2022-12-10T08:03:21;46.38;;;14.20;;
75427;SDS011;64008;55.612;37.698;2022-12-10T08:05:48;38.65;;;11.80;;
75427;SDS011;64008;55.612;37.698;2022-12-10T08:08:25;46.75;;;12.73;;
75427;SDS011;64008;55.612;37.698;2022-12-10T08:10:50;37.20;;;12.30;;
75427;SDS011;64008;55.612;37.698;2022-12-10T08:13:15;36.90;;;13.50;;
75427;SDS011;64008;55.612;37.698;2022-12-10T08:15:41;42.55;;;12.82;;
75427;SDS011;64008;55.612;37.698;2022-12-10T08:18:06;53.75;;;15.77;;
75427;SDS011;64008;55.612;37.698;2022-12-10T08:20:32;47.63;;;14.52;;
75427;SDS011;64008;55.612;37.698;2022-12-10T08:22:57;56.60;;;15.25;;
75427;SDS011;64008;55.612;37.698;2022-12-10T08:25:23;50.25;;;13.25;;
75427;SDS011;64008;55.612;37.698;2022-12-10T08:27:48;36.58;;;11.55;;
75427;SDS011;64008;55.612;37.698;2022-12-10T08:30:14;29.83;;;9.30;;
75427;SDS011;64008;55.612;37.698;2022-12-10T08:32:39;50.13;;;14.43;;
75427;SDS011;64008;55.612;37.698;2022-12-10T08:35:05;42.70;;;13.02;;
75427;SDS011;64008;55.612;37.698;2022-12-10T08:37:31;59.58;;;15.02;;
75427;SDS011;64008;55.612;37.698;2022-12-10T08:39:56;42.65;;;12.90;;
75427;SDS011;64008;55.612;37.698;2022-12-10T08:42:21;50.42;;;14.73;;
75427;SDS011;64008;55.612;37.698;2022-12-10T08:44:47;45.20;;;14.05;;
75427;SDS011;64008;55.612;37.698;2022-12-10T08:47:12;59.05;;;15.02;;
75427;SDS011;64008;55.612;37.698;2022-12-10T08:49:38;50.78;;;15.15;;
75427;SDS011;64008;55.612;37.698;2022-12-10T08:52:03;44.50;;;13.80;;
75427;SDS011;64008;55.612;37.698;2022-12-10T08:54:29;48.58;;;13.98;;
75427;SDS011;64008;55.612;37.698;2022-12-10T08:56:54;7.22;;;1.75;;
75427;SDS011;64008;55.612;37.698;2022-12-10T08:59:20;40.03;;;13.10;;
75427;SDS011;64008;55.612;37.698;2022-12-10T09:01:45;50.33;;;14.38;;
75427;SDS011;64008;55.612;37.698;2022-12-10T09:04:11;57.00;;;16.10;;
75427;SDS011;64008;55.612;37.698;2022-12-10T09:06:37;44.53;;;13.02;;
75427;SDS011;64008;55.612;37.698;2022-12-10T09:09:03;55.60;;;14.35;;
75427;SDS011;64008;55.612;37.698;2022-12-10T09:11:31;48.38;;;16.17;;
75427;SDS011;64008;55.612;37.698;2022-12-10T09:13:58;47.33;;;13.98;;
75427;SDS011;64008;55.612;37.698;2022-12-10T09:16:28;55.92;;;16.60;;
75427;SDS011;64008;55.612;37.698;2022-12-10T09:18:58;46.30;;;14.73;;
75427;SDS011;64008;55.612;37.698;2022-12-10T09:21:24;52.70;;;15.07;;
75427;SDS011;64008;55.612;37.698;2022-12-10T09:23:50;54.20;;;15.13;;
75427;SDS011;64008;55.612;37.698;2022-12-10T09:26:17;60.03;;;17.63;;
75427;SDS011;64008;55.612;37.698;2022-12-10T09:28:43;58.90;;;16.20;;
75427;SDS011;64008;55.612;37.698;2022-12-10T09:31:11;48.20;;;14.95;;
75427;SDS011;64008;55.612;37.698;2022-12-10T09:33:37;39.35;;;11.52;;
75427;SDS011;64008;55.612;37.698;2022-12-10T09:36:04;57.95;;;17.38;;
75427;SDS011;64008;55.612;37.698;2022-12-10T09:38:33;43.85;;;13.07;;
75427;SDS011;64008;55.612;37.698;2022-12-10T09:41:01;42.85;;;11.43;;
75427;SDS011;64008;55.612;37.698;2022-12-10T09:46:23;64.57;;;17.17;;
75427;SDS011;64008;55.612;37.698;2022-12-10T09:48:59;68.38;;;18.60;;
75427;SDS011;64008;55.612;37.698;2022-12-10T09:51:44;60.20;;;15.77;;
75427;SDS011;64008;55.612;37.698;2022-12-10T09:54:20;67.00;;;18.33;;
75427;SDS011;64008;55.612;37.698;2022-12-10T09:56:47;66.35;;;17.02;;
75427;SDS011;64008;55.612;37.698;2022-12-10T09:59:31;49.40;;;14.73;;
75427;SDS011;64008;55.612;37.698;2022-12-10T10:07:21;43.55;;;12.50;;
75427;SDS011;64008;55.612;37.698;2022-12-10T10:09:50;51.67;;;14.73;;
75427;SDS011;64008;55.612;37.698;2022-12-10T10:12:20;48.03;;;12.80;;
75427;SDS011;64008;55.612;37.698;2022-12-10T10:14:45;52.15;;;14.82;;
75427;SDS011;64008;55.612;37.698;2022-12-10T10:17:19;53.58;;;14.43;;
75427;SDS011;64008;55.612;37.698;2022-12-10T10:19:48;38.95;;;12.82;;
75427;SDS011;64008;55.612;37.698;2022-12-10T10:22:14;58.22;;;14.93;;
75427;SDS011;64008;55.612;37.698;2022-12-10T10:24:41;47.58;;;14.13;;
75427;SDS011;64008;55.612;37.698;2022-12-10T10:27:14;46.42;;;13.93;;
75427;SDS011;64008;55.612;37.698;2022-12-10T10:29:59;35.28;;;10.32;;
75427;SDS011;64008;55.612;37.698;2022-12-10T10:35:05;60.20;;;15.60;;
75427;SDS011;64008;55.612;37.698;2022-12-10T10:40:00;52.72;;;15.32;;
75427;SDS011;64008;55.612;37.698;2022-12-10T10:42:41;52.00;;;16.30;;
75427;SDS011;64008;55.612;37.698;2022-12-10T10:48:14;54.78;;;14.13;;
75427;SDS011;64008;55.612;37.698;2022-12-10T10:55:55;62.13;;;17.98;;
75427;SDS011;64008;55.612;37.698;2022-12-10T10:58:24;46.17;;;14.43;;
75427;SDS011;64008;55.612;37.698;2022-12-10T11:00:57;27.60;;;7.78;;
75427;SDS011;64008;55.612;37.698;2022-12-10T11:03:26;52.42;;;15.88;;
75427;SDS011;64008;55.612;37.698;2022-12-10T11:05:53;59.83;;;15.52;;
75427;SDS011;64008;55.612;37.698;2022-12-10T11:08:21;69.43;;;17.55;;
75427;SDS011;64008;55.612;37.698;2022-12-10T11:10:49;75.82;;;19.05;;
75427;SDS011;64008;55.612;37.698;2022-12-10T11:13:23;55.40;;;15.70;;
75427;SDS011;64008;55.612;37.698;2022-12-10T11:15:55;53.35;;;17.17;;
75427;SDS011;64008;55.612;37.698;2022-12-10T11:18:51;58.15;;;15.52;;
75427;SDS011;64008;55.612;37.698;2022-12-10T11:21:21;78.68;;;19.73;;
75427;SDS011;64008;55.612;37.698;2022-12-10T11:23:48;53.70;;;15.65;;
75427;SDS011;64008;55.612;37.698;2022-12-10T11:26:26;63.78;;;17.50;;
75427;SDS011;64008;55.612;37.698;2022-12-10T11:37:51;45.15;;;15.98;;
75427;SDS011;64008;55.612;37.698;2022-12-10T11:57:06;26.83;;;8.25;;
75427;SDS011;64008;55.612;37.698;2022-12-10T12:05:13;22.50;;;7.68;;
75427;SDS011;64008;55.612;37.698;2022-12-10T12:13:51;34.00;;;10.40;;
75427;SDS011;64008;55.612;37.698;2022-12-10T12:16:54;20.17;;;5.07;;
75427;SDS011;64008;55.612;37.698;2022-12-10T12:19:39;32.50;;;9.82;;
75427;SDS011;64008;55.612;37.698;2022-12-10T12:22:15;37.30;;;11.40;;
75427;SDS011;64008;55.612;37.698;2022-12-10T12:24:46;30.15;;;10.15;;
75427;SDS011;64008;55.612;37.698;2022-12-10T12:27:25;32.25;;;10.35;;
75427;SDS011;64008;55.612;37.698;2022-12-10T12:30:13;44.05;;;13.23;;
75427;SDS011;64008;55.612;37.698;2022-12-10T12:35:19;41.28;;;11.38;;
75427;SDS011;64008;55.612;37.698;2022-12-10T12:37:59;38.60;;;12.90;;
75427;SDS011;64008;55.612;37.698;2022-12-10T12:40:36;38.05;;;12.40;;
75427;SDS011;64008;55.612;37.698;2022-12-10T12:43:09;36.35;;;11.27;;
75427;SDS011;64008;55.612;37.698;2022-12-10T12:45:43;35.03;;;11.93;;
75427;SDS011;64008;55.612;37.698;2022-12-10T12:50:49;35.80;;;11.02;;
75427;SDS011;64008;55.612;37.698;2022-12-10T12:53:17;30.55;;;9.77;;
75427;SDS011;64008;55.612;37.698;2022-12-10T12:55:46;43.15;;;13.25;;
75427;SDS011;64008;55.612;37.698;2022-12-10T12:58:42;25.77;;;8.48;;
75427;SDS011;64008;55.612;37.698;2022-12-10T13:01:29;31.02;;;10.48;;
75427;SDS011;64008;55.612;37.698;2022-12-10T13:03:57;25.50;;;8.48;;
75427;SDS011;64008;55.612;37.698;2022-12-10T13:06:25;27.70;;;8.50;;
75427;SDS011;64008;55.612;37.698;2022-12-10T13:11:38;26.52;;;8.70;;
75427;SDS011;64008;55.612;37.698;2022-12-10T13:34:53;35.53;;;11.77;;
75427;SDS011;64008;55.612;37.698;2022-12-10T13:37:37;28.25;;;10.07;;
75427;SDS011;64008;55.612;37.698;2022-12-10T13:49:00;29.25;;;9.20;;
75427;SDS011;64008;55.612;37.698;2022-12-10T13:56:52;26.42;;;8.82;;
75427;SDS011;64008;55.612;37.698;2022-12-10T13:59:41;24.42;;;8.60;;
75427;SDS011;64008;55.612;37.698;2022-12-10T14:08:25;30.15;;;10.82;;
75427;SDS011;64008;55.612;37.698;2022-12-10T14:10:54;23.92;;;9.75;;
75427;SDS011;64008;55.612;37.698;2022-12-10T14:13:21;33.50;;;9.38;;
75427;SDS011;64008;55.612;37.698;2022-12-10T14:15:57;33.08;;;10.50;;
75427;SDS011;64008;55.612;37.698;2022-12-10T14:18:27;34.65;;;11.25;;
75427;SDS011;64008;55.612;37.698;2022-12-10T14:20:54;28.98;;;9.52;;
75427;SDS011;64008;55.612;37.698;2022-12-10T14:23:22;18.13;;;6.65;;
75427;SDS011;64008;55.612;37.698;2022-12-10T14:25:59;23.75;;;8.52;;
75427;SDS011;64008;55.612;37.698;2022-12-10T14:28:49;32.53;;;11.30;;
75427;SDS011;64008;55.612;37.698;2022-12-10T14:31:27;30.33;;;10.60;;
75427;SDS011;64008;55.612;37.698;2022-12-10T14:33:57;27.73;;;9.13;;
75427;SDS011;64008;55.612;37.698;2022-12-10T14:36:30;24.95;;;8.82;;
75427;SDS011;64008;55.612;37.698;2022-12-10T14:38:58;33.05;;;10.77;;
75427;SDS011;64008;55.612;37.698;2022-12-10T14:41:26;21.15;;;7.70;;
75427;SDS011;64008;55.612;37.698;2022-12-10T14:43:54;28.27;;;9.93;;
75427;SDS011;64008;55.612;37.698;2022-12-10T14:46:23;16.65;;;5.85;;
75427;SDS011;64008;55.612;37.698;2022-12-10T14:48:52;26.58;;;9.18;;
75427;SDS011;64008;55.612;37.698;2022-12-10T14:51:23;22.23;;;7.30;;
75427;SDS011;64008;55.612;37.698;2022-12-10T14:53:52;27.60;;;9.77;;
75427;SDS011;64008;55.612;37.698;2022-12-10T14:56:35;20.17;;;8.38;;
75427;SDS011;64008;55.612;37.698;2022-12-10T14:59:08;22.30;;;8.63;;
75427;SDS011;64008;55.612;37.698;2022-12-10T15:01:38;26.73;;;9.88;;
75427;SDS011;64008;55.612;37.698;2022-12-10T15:04:12;20.60;;;9.15;;
75427;SDS011;64008;55.612;37.698;2022-12-10T15:06:41;21.08;;;8.07;;
75427;SDS011;64008;55.612;37.698;2022-12-10T15:09:26;25.77;;;9.38;;
75427;SDS011;64008;55.612;37.698;2022-12-10T15:11:55;25.42;;;10.55;;
75427;SDS011;64008;55.612;37.698;2022-12-10T15:14:22;25.02;;;9.20;;
75427;SDS011;64008;55.612;37.698;2022-12-10T15:16:50;20.92;;;7.30;;
75427;SDS011;64008;55.612;37.698;2022-12-10T15:19:22;19.83;;;7.22;;
75427;SDS011;64008;55.612;37.698;2022-12-10T15:24:45;18.35;;;6.22;;
75427;SDS011;64008;55.612;37.698;2022-12-10T15:27:15;15.48;;;6.93;;
75427;SDS011;64008;55.612;37.698;2022-12-10T15:29:42;15.40;;;6.22;;
75427;SDS011;64008;55.612;37.698;2022-12-10T15:32:12;18.00;;;6.50;;
75427;SDS011;64008;55.612;37.698;2022-12-10T15:34:46;19.50;;;7.63;;
75427;SDS011;64008;55.612;37.698;2022-12-10T15:37:18;22.55;;;8.70;;
75427;SDS011;64008;55.612;37.698;2022-12-10T15:39:51;18.33;;;7.60;;
75427;SDS011;64008;55.612;37.698;2022-12-10T15:42:55;4.60;;;1.77;;
75427;SDS011;64008;55.612;37.698;2022-12-10T15:47:41;16.83;;;7.05;;
75427;SDS011;64008;55.612;37.698;2022-12-10T15:50:08;11.30;;;5.07;;
75427;SDS011;64008;55.612;37.698;2022-12-10T15:52:33;16.88;;;6.53;;
75427;SDS011;64008;55.612;37.698;2022-12-10T15:55:00;19.27;;;8.50;;
75427;SDS011;64008;55.612;37.698;2022-12-10T15:57:27;21.73;;;9.75;;
75427;SDS011;64008;55.612;37.698;2022-12-10T15:59:58;21.90;;;9.93;;
75427;SDS011;64008;55.612;37.698;2022-12-10T16:05:29;16.27;;;5.97;;
75427;SDS011;64008;55.612;37.698;2022-12-10T16:10:54;20.10;;;9.00;;
75427;SDS011;64008;55.612;37.698;2022-12-10T16:13:24;19.50;;;7.22;;
75427;SDS011;64008;55.612;37.698;2022-12-10T16:15:55;17.70;;;7.47;;
75427;SDS011;64008;55.612;37.698;2022-12-10T16:18:24;16.02;;;6.40;;
75427;SDS011;64008;55.612;37.698;2022-12-10T16:20:50;21.65;;;8.50;;
75427;SDS011;64008;55.612;37.698;2022-12-10T16:23:15;17.27;;;7.20;;
75427;SDS011;64008;55.612;37.698;2022-12-10T16:25:41;17.75;;;6.63;;
75427;SDS011;64008;55.612;37.698;2022-12-10T16:28:12;13.15;;;5.80;;
75427;SDS011;64008;55.612;37.698;2022-12-10T16:30:44;13.95;;;5.75;;
75427;SDS011;64008;55.612;37.698;2022-12-10T16:33:15;11.95;;;4.82;;
75427;SDS011;64008;55.612;37.698;2022-12-10T16:35:42;14.93;;;7.03;;
75427;SDS011;64008;55.612;37.698;2022-12-10T16:38:09;13.07;;;5.40;;
75427;SDS011;64008;55.612;37.698;2022-12-10T16:40:34;20.20;;;8.55;;
75427;SDS011;64008;55.612;37.698;2022-12-10T16:43:01;14.90;;;7.00;;
75427;SDS011;64008;55.612;37.698;2022-12-10T16:45:28;16.55;;;7.13;;
75427;SDS011;64008;55.612;37.698;2022-12-10T16:47:56;17.08;;;6.03;;
75427;SDS011;64008;55.612;37.698;2022-12-10T16:50:22;14.00;;;5.35;;
75427;SDS011;64008;55.612;37.698;2022-12-10T16:52:48;15.73;;;7.13;;
75427;SDS011;64008;55.612;37.698;2022-12-10T16:55:19;16.90;;;6.80;;
75427;SDS011;64008;55.612;37.698;2022-12-10T16:57:47;14.80;;;6.57;;